Sea Cloud II — 9HUE6 — position and weather

sailwx.info

Track history (hours):
 
Tides and Currents Weather Stations Pressure Air Temp Water Temp Dewpoint Dewpoint Depression Visibility Wind Speed Wind Dir Waves Ship Positions

Sea Cloud II

Ship's website: http://www.seacloud.com/en/the-ships/sea-cloud-ii.html

Last reported at 2019-May-16 11:49 UTC. Time now 2019-May-20 03:21 UTC.
Position N 39°26' W 000°19'.

Length 117 m; draft 6 m.

Type: Passenger vessel. MMSI: 248953000.

Date/timePositionNaut miles runAvg speedWind from/ knotsBaromVisibWave heightAir tempDewpointWater temp
2019-May-16 11:49N 39°26' W 000°19'1 3.4
2019-May-16 11:28N 39°27' W 000°19'0 0.0
2019-May-16 10:55N 39°27' W 000°19'0 0.0
2019-May-16 10:22N 39°27' W 000°19'0 0.0
2019-May-16 09:58N 39°27' W 000°19'0 0.0
2019-May-16 09:28N 39°27' W 000°19'0 0.0
2019-May-16 08:58N 39°27' W 000°19'0 0.0
2019-May-16 08:28N 39°27' W 000°19'0 0.0
2019-May-16 07:58N 39°27' W 000°19'0 0.0
2019-May-16 07:28N 39°27' W 000°19'0 0.0
2019-May-16 06:55N 39°27' W 000°19'0 0.0
2019-May-16 06:28N 39°27' W 000°19'0 0.0
2019-May-16 05:58N 39°27' W 000°19'0 0.1
2019-May-16 05:29N 39°27' W 000°19'3 5.2
2019-May-16 05:00N 39°25' W 000°17'4 5.9
2019-May-16 04:16N 39°26' W 000°12'6 7.1
2019-May-16 03:21N 39°31' W 000°07'124 4.9
2019-May-15 02:07N 41°05' E 001°40'1 7.8
2019-May-15 01:59N 41°05' E 001°42'4 7.8
2019-May-15 01:29N 41°05' E 001°47'4 8.0
2019-May-15 01:00N 41°06' E 001°52'4 8.2
2019-May-15 00:30N 41°08' E 001°57'5 9.8
2019-May-15 00:00N 41°09' E 002°03'611.6
2019-May-14 23:31N 41°11' E 002°10'611.5
2019-May-14 23:00N 41°14' E 002°17'611.4
2019-May-14 22:31N 41°17' E 002°24'611.1
2019-May-14 22:01N 41°19' E 002°30'510.7
2019-May-14 21:30N 41°22' E 002°36'1110.6
2019-May-14 20:31N 41°26' E 002°49'011.1
2019-May-14 20:30N 41°26' E 002°49'165 5.5
2019-May-13 14:26N 43°08' E 005°46'46 2.5
2019-May-12 19:53N 43°12' E 006°48'411.3
2019-May-12 19:30N 43°15' E 006°52'611.2
2019-May-12 19:01N 43°19' E 006°57'611.3
2019-May-12 18:31N 43°23' E 007°02'611.2
2019-May-12 18:00N 43°28' E 007°07'510.8
2019-May-12 17:30N 43°32' E 007°11'510.4
2019-May-12 17:00N 43°36' E 007°16'5 9.2
2019-May-12 16:31N 43°41' E 007°17'1 1.6
2019-May-12 16:00N 43°42' E 007°17'0 0.0
2019-May-12 15:30N 43°42' E 007°17'0 0.0
2019-May-12 15:00N 43°42' E 007°17'0 0.0
2019-May-12 14:30N 43°42' E 007°17'0 0.0
2019-May-12 14:00N 43°42' E 007°17'0 0.0
2019-May-12 13:30N 43°42' E 007°17'0 0.0
2019-May-12 13:00N 43°42' E 007°17'0 0.0
2019-May-12 12:30N 43°42' E 007°17'0 0.0
2019-May-12 12:00N 43°42' E 007°17'0 0.0
2019-May-12 11:30N 43°42' E 007°17'0 0.0
2019-May-12 11:00N 43°42' E 007°17'0 0.0
2019-May-12 10:30N 43°42' E 007°17'0 0.0
2019-May-12 10:00N 43°42' E 007°17'0 0.0
2019-May-12 09:30N 43°42' E 007°17'0 0.0
2019-May-12 09:00N 43°42' E 007°17'0 0.0
2019-May-12 08:30N 43°42' E 007°17'0 0.0
2019-May-12 08:00N 43°42' E 007°17'0 0.0
2019-May-12 07:30N 43°42' E 007°17'0 0.0
2019-May-12 07:00N 43°42' E 007°17'0 0.0
2019-May-12 06:30N 43°42' E 007°17'0 0.0
2019-May-12 06:00N 43°42' E 007°17'1 1.3
2019-May-12 05:30N 43°41' E 007°17'3 6.0
2019-May-12 05:00N 43°40' E 007°21'4 8.7
2019-May-12 04:30N 43°43' E 007°26'510.6
2019-May-12 04:00N 43°47' E 007°31'0 0.2
2019-May-12 03:29N 43°47' E 007°31'0 0.0
2019-May-12 02:56N 43°47' E 007°31'0 0.0
2019-May-12 02:20N 43°47' E 007°31'0 0.0
2019-May-12 01:59N 43°47' E 007°31'0 0.0
2019-May-12 01:29N 43°47' E 007°31'0 0.0
2019-May-12 00:56N 43°47' E 007°31'0 0.0
2019-May-12 00:29N 43°47' E 007°31'0 0.0
2019-May-11 23:56N 43°47' E 007°31'0 0.1
2019-May-11 23:29N 43°47' E 007°31'0 0.0
2019-May-11 22:59N 43°47' E 007°31'0 0.0
2019-May-11 22:29N 43°47' E 007°31'0 0.1
2019-May-11 21:59N 43°47' E 007°31'0 0.0
2019-May-11 21:26N 43°47' E 007°31'0 0.0
2019-May-11 20:59N 43°47' E 007°31'0 0.0
2019-May-11 20:26N 43°47' E 007°31'0 0.0
2019-May-11 19:56N 43°47' E 007°31'0 0.0
2019-May-11 19:29N 43°47' E 007°31'0 0.0
2019-May-11 18:56N 43°47' E 007°31'0 0.0
2019-May-11 18:29N 43°47' E 007°31'0 0.0
2019-May-11 17:59N 43°47' E 007°31'0 0.0
2019-May-11 17:26N 43°47' E 007°31'0 0.0
2019-May-11 16:56N 43°47' E 007°31'0 0.0
2019-May-11 16:23N 43°47' E 007°31'0 0.1
2019-May-11 15:59N 43°47' E 007°31'0 0.0
2019-May-11 15:29N 43°47' E 007°31'0 0.0
2019-May-11 13:41N 43°47' E 007°31'0 0.0
2019-May-11 13:17N 43°47' E 007°31'0 0.0
2019-May-11 12:56N 43°47' E 007°31'0 0.0
2019-May-11 12:29N 43°47' E 007°31'0 0.0
2019-May-11 11:59N 43°47' E 007°31'0 0.0
2019-May-11 11:29N 43°47' E 007°31'0 0.8
2019-May-11 11:00N 43°46' E 007°31'3 6.6
2019-May-11 10:30N 43°43' E 007°33'4 7.4
2019-May-11 10:00N 43°40' E 007°36'3 5.7
2019-May-11 09:30N 43°38' E 007°38'0 0.2
2019-May-11 09:00N 43°38' E 007°38'0 0.1
2019-May-11 08:30N 43°38' E 007°38'0 0.4
2019-May-11 08:00N 43°38' E 007°38'0 1.0
2019-May-11 07:30N 43°38' E 007°39'1 1.0
2019-May-11 07:00N 43°38' E 007°39'1 1.3
2019-May-11 06:30N 43°37' E 007°40'2 3.6
2019-May-11 06:00N 43°37' E 007°43'4 7.9
2019-May-11 05:30N 43°36' E 007°48'4 7.7
2019-May-11 05:00N 43°34' E 007°53'4 7.5
2019-May-11 04:30N 43°33' E 007°58'4 7.6
2019-May-11 04:00N 43°31' E 008°03'4 7.9
2019-May-11 03:30N 43°30' E 008°08'4 7.5
2019-May-11 03:00N 43°29' E 008°13'4 7.3
2019-May-11 02:30N 43°28' E 008°17'4 7.3
2019-May-11 01:59N 43°27' E 008°22'4 7.7
2019-May-11 01:24N 43°25' E 008°28'4 7.7
2019-May-11 00:52N 43°23' E 008°33'3 7.6
2019-May-11 00:29N 43°22' E 008°37'4 7.9
2019-May-11 00:00N 43°21' E 008°42'4 7.9
2019-May-10 23:30N 43°19' E 008°47'4 8.0
2019-May-10 23:00N 43°18' E 008°52'4 8.1
2019-May-10 22:30N 43°16' E 008°57'4 8.1
2019-May-10 22:00N 43°15' E 009°02'4 7.9
2019-May-10 21:29N 43°14' E 009°08'13 7.8
2019-May-10 19:50N 43°11' E 009°25'2 7.6
2019-May-10 19:30N 43°10' E 009°28'4 7.9
2019-May-10 19:00N 43°08' E 009°33'4 7.4
2019-May-10 18:29N 43°05' E 009°36'4 7.8
2019-May-10 17:58N 43°02' E 009°39'4 8.0
2019-May-10 17:29N 42°58' E 009°40'7 7.8
2019-May-10 16:33N 42°51' E 009°38'1 8.1
2019-May-10 16:27N 42°50' E 009°38'3 6.1
2019-May-10 16:00N 42°47' E 009°36'1 0.7
2019-May-10 15:10N 42°47' E 009°37'0 0.8
2019-May-10 15:00N 42°47' E 009°37'2 1.5
2019-May-10 13:45N 42°45' E 009°37'1 1.5
2019-May-10 13:14N 42°44' E 009°37'1 2.0
2019-May-10 12:47N 42°43' E 009°36'7 6.8
2019-May-10 11:50N 42°42' E 009°28'4 0.6
2019-May-10 04:50N 42°42' E 009°33'2 5.6
2019-May-10 04:25N 42°42' E 009°36'2 3.8
2019-May-10 04:00N 42°41' E 009°38'2 4.1
2019-May-10 03:30N 42°41' E 009°41'3 6.1
2019-May-10 03:00N 42°41' E 009°45'7 6.8
2019-May-10 01:54N 42°41' E 009°55'10 4.5
2019-May-09 23:45N 42°41' E 010°08'4 3.3
2019-May-09 22:41N 42°40' E 010°13'37 1.6
2019-May-08 23:14N 43°17' E 010°14'3 5.0
2019-May-08 22:38N 43°20' E 010°13'1 4.8
2019-May-08 22:24N 43°21' E 010°12'2 4.9
2019-May-08 22:00N 43°23' E 010°12'4 5.1
2019-May-08 21:08N 43°27' E 010°09'1 4.8
2019-May-08 21:01N 43°28' E 010°10'3 5.2
2019-May-08 20:31N 43°30' E 010°11'3 6.4
2019-May-08 20:01N 43°32' E 010°15'3 5.6
2019-May-08 19:30N 43°33' E 010°18'0 0.0
2019-May-08 18:58N 43°33' E 010°18'0 0.0
2019-May-08 18:28N 43°33' E 010°18'0 0.0
2019-May-08 17:58N 43°33' E 010°18'0 0.0
2019-May-08 17:25N 43°33' E 010°18'0 0.0
2019-May-08 16:49N 43°33' E 010°18'0 0.0
2019-May-08 16:28N 43°33' E 010°18'0 0.0
2019-May-08 15:55N 43°33' E 010°18'0 0.0
2019-May-08 15:25N 43°33' E 010°18'0 0.0
2019-May-08 14:46N 43°33' E 010°18'0 0.0
2019-May-08 14:22N 43°33' E 010°18'0 0.0
2019-May-08 13:58N 43°33' E 010°18'0 0.0
2019-May-08 13:25N 43°33' E 010°18'0 0.0
2019-May-08 12:55N 43°33' E 010°18'0 0.0
2019-May-08 12:28N 43°33' E 010°18'0 0.0
2019-May-08 11:58N 43°33' E 010°18'0 0.0
2019-May-08 11:28N 43°33' E 010°18'0 0.0
2019-May-08 10:58N 43°33' E 010°18'0 0.0
2019-May-08 10:25N 43°33' E 010°18'0 0.0
2019-May-08 09:55N 43°33' E 010°18'0 0.0
2019-May-08 09:19N 43°33' E 010°18'0 0.0
2019-May-08 08:55N 43°33' E 010°18'0 0.0
2019-May-08 08:19N 43°33' E 010°18'0 0.0
2019-May-08 07:55N 43°33' E 010°18'0 0.0
2019-May-08 07:19N 43°33' E 010°18'0 0.0
2019-May-08 06:52N 43°33' E 010°18'0 0.0
2019-May-08 06:28N 43°33' E 010°18'0 0.0
2019-May-08 05:58N 43°33' E 010°18'0 0.3
2019-May-08 05:30N 43°33' E 010°18'2 4.1
2019-May-08 05:00N 43°32' E 010°16'3 6.3
2019-May-08 04:30N 43°30' E 010°12'2 4.8
2019-May-08 04:00N 43°30' E 010°09'2 4.6
2019-May-08 03:30N 43°30' E 010°06'2 3.4
2019-May-08 03:00N 43°32' E 010°05'3 5.5
2019-May-08 02:30N 43°35' E 010°05'3 6.8
2019-May-08 02:00N 43°38' E 010°04'3 6.9
2019-May-08 01:30N 43°41' E 010°02'3 6.9
2019-May-08 01:00N 43°44' E 010°01'2 4.3
2019-May-08 00:30N 43°47' E 009°59'2 3.4
2019-May-08 00:00N 43°48' E 009°59'2 3.5
2019-May-07 23:30N 43°50' E 009°58'2 3.4
2019-May-07 23:00N 43°51' E 009°57'3 6.4
2019-May-07 22:30N 43°54' E 009°55'3 6.7
2019-May-07 22:00N 43°57' E 009°54'3 6.7
2019-May-07 21:30N 44°01' E 009°52'3 5.6
2019-May-07 21:00N 44°03' E 009°51'0 0.1
2019-May-07 20:30N 44°03' E 009°51'0 0.0
2019-May-07 20:00N 44°03' E 009°51'0 0.0
2019-May-07 19:30N 44°03' E 009°51'0 0.0
2019-May-07 19:00N 44°03' E 009°51'0 0.1
2019-May-07 18:30N 44°03' E 009°51'0 0.0
2019-May-07 18:00N 44°03' E 009°51'0 0.0
2019-May-07 17:30N 44°03' E 009°51'0 0.0
2019-May-07 17:00N 44°03' E 009°51'0 0.0
2019-May-07 16:30N 44°03' E 009°51'0 0.0
2019-May-07 16:00N 44°03' E 009°51'0 0.0
2019-May-07 15:30N 44°03' E 009°51'0 0.0
2019-May-07 15:00N 44°03' E 009°51'0 0.0
2019-May-07 14:30N 44°03' E 009°51'0 0.0
2019-May-07 14:00N 44°03' E 009°51'0 0.0
2019-May-07 13:30N 44°03' E 009°51'0 0.0
2019-May-07 13:00N 44°03' E 009°51'0 0.0
2019-May-07 12:30N 44°03' E 009°51'0 0.0
2019-May-07 12:00N 44°03' E 009°51'0 0.0
2019-May-07 11:30N 44°03' E 009°51'0 0.0
2019-May-07 11:00N 44°03' E 009°51'0 0.4
2019-May-07 10:31N 44°03' E 009°51'3 5.5
2019-May-07 10:01N 44°01' E 009°53'4 7.1
2019-May-07 09:30N 43°58' E 009°50'2 3.4
2019-May-07 09:01N 43°57' E 009°49'1 2.6
2019-May-07 08:31N 43°55' E 009°49'1 2.6
2019-May-07 08:01N 43°54' E 009°49'2 3.1
2019-May-07 07:30N 43°53' E 009°50'1 2.5
2019-May-07 07:01N 43°51' E 009°50'1 2.6
2019-May-07 06:30N 43°50' E 009°51'2 4.2
2019-May-07 06:01N 43°48' E 009°52'3 6.5
2019-May-07 05:31N 43°47' E 009°48'2 4.5
2019-May-07 05:00N 43°47' E 009°45'2 3.8
2019-May-07 04:30N 43°47' E 009°42'2 4.9
2019-May-07 04:00N 43°46' E 009°39'3 7.0
2019-May-07 03:31N 43°46' E 009°34'4 7.0
2019-May-07 03:00N 43°46' E 009°29'3 7.0
2019-May-07 02:31N 43°45' E 009°24'3 6.9
2019-May-07 02:01N 43°45' E 009°20'3 6.8
2019-May-07 01:31N 43°45' E 009°15'3 5.7
2019-May-07 01:01N 43°44' E 009°11'2 4.7
2019-May-07 00:31N 43°44' E 009°08'3 6.9
2019-May-07 00:01N 43°43' E 009°03'3 6.9
2019-May-06 23:30N 43°43' E 008°58'3 7.0
2019-May-06 23:01N 43°42' E 008°54'4 7.0
2019-May-06 22:30N 43°42' E 008°49'3 6.8
2019-May-06 22:00N 43°41' E 008°44'3 6.6
2019-May-06 21:30N 43°40' E 008°40'3 6.7
2019-May-06 21:01N 43°40' E 008°35'3 6.7
2019-May-06 20:30N 43°39' E 008°31'3 6.5
2019-May-06 19:59N 43°38' E 008°26'2510.5
2019-May-06 17:38N 43°36' E 007°52'210.6
2019-May-06 17:29N 43°36' E 007°50'4 8.1
2019-May-06 17:01N 43°36' E 007°45'2 3.5
2019-May-06 16:30N 43°36' E 007°42'2 4.1
2019-May-06 16:00N 43°36' E 007°39'2 4.6
2019-May-06 15:31N 43°36' E 007°36'2 4.9
2019-May-06 15:01N 43°35' E 007°33'3 5.6
2019-May-06 14:31N 43°35' E 007°29'3 6.1
2019-May-06 14:00N 43°34' E 007°25'3 6.3
2019-May-06 13:31N 43°34' E 007°20'3 6.4
2019-May-06 13:01N 43°34' E 007°16'3 5.5
2019-May-06 12:30N 43°34' E 007°12'3 6.4
2019-May-06 12:01N 43°35' E 007°08'  
Track history (hours):
 
Tides and Currents Weather Stations Pressure Air Temp Water Temp Dewpoint Dewpoint Depression Visibility Wind Speed Wind Dir Waves Ship Positions

Sea Cloud II

Ship's website: http://www.seacloud.com/en/the-ships/sea-cloud-ii.html

Last reported at 2019-May-16 11:49 UTC. Time now 2019-May-20 03:21 UTC.
Position N 39°26' W 000°19'.

Length 117 m; draft 6 m.

Type: Passenger vessel. MMSI: 248953000.

Date/timePositionNaut miles runAvg speedWind from/ knotsBaromVisibWave heightAir tempDewpointWater temp
2019-May-16 11:49N 39°26' W 000°19'1 3.4
2019-May-16 11:28N 39°27' W 000°19'0 0.0
2019-May-16 10:55N 39°27' W 000°19'0 0.0
2019-May-16 10:22N 39°27' W 000°19'0 0.0
2019-May-16 09:58N 39°27' W 000°19'0 0.0
2019-May-16 09:28N 39°27' W 000°19'0 0.0
2019-May-16 08:58N 39°27' W 000°19'0 0.0
2019-May-16 08:28N 39°27' W 000°19'0 0.0
2019-May-16 07:58N 39°27' W 000°19'0 0.0
2019-May-16 07:28N 39°27' W 000°19'0 0.0
2019-May-16 06:55N 39°27' W 000°19'0 0.0
2019-May-16 06:28N 39°27' W 000°19'0 0.0
2019-May-16 05:58N 39°27' W 000°19'0 0.1
2019-May-16 05:29N 39°27' W 000°19'3 5.2
2019-May-16 05:00N 39°25' W 000°17'4 5.9
2019-May-16 04:16N 39°26' W 000°12'6 7.1
2019-May-16 03:21N 39°31' W 000°07'124 4.9
2019-May-15 02:07N 41°05' E 001°40'1 7.8
2019-May-15 01:59N 41°05' E 001°42'4 7.8
2019-May-15 01:29N 41°05' E 001°47'4 8.0
2019-May-15 01:00N 41°06' E 001°52'4 8.2
2019-May-15 00:30N 41°08' E 001°57'5 9.8
2019-May-15 00:00N 41°09' E 002°03'611.6
2019-May-14 23:31N 41°11' E 002°10'611.5
2019-May-14 23:00N 41°14' E 002°17'611.4
2019-May-14 22:31N 41°17' E 002°24'611.1
2019-May-14 22:01N 41°19' E 002°30'510.7
2019-May-14 21:30N 41°22' E 002°36'1110.6
2019-May-14 20:31N 41°26' E 002°49'011.1
2019-May-14 20:30N 41°26' E 002°49'165 5.5
2019-May-13 14:26N 43°08' E 005°46'46 2.5
2019-May-12 19:53N 43°12' E 006°48'411.3
2019-May-12 19:30N 43°15' E 006°52'611.2
2019-May-12 19:01N 43°19' E 006°57'611.3
2019-May-12 18:31N 43°23' E 007°02'611.2
2019-May-12 18:00N 43°28' E 007°07'510.8
2019-May-12 17:30N 43°32' E 007°11'510.4
2019-May-12 17:00N 43°36' E 007°16'5 9.2
2019-May-12 16:31N 43°41' E 007°17'1 1.6
2019-May-12 16:00N 43°42' E 007°17'0 0.0
2019-May-12 15:30N 43°42' E 007°17'0 0.0
2019-May-12 15:00N 43°42' E 007°17'0 0.0
2019-May-12 14:30N 43°42' E 007°17'0 0.0
2019-May-12 14:00N 43°42' E 007°17'0 0.0
2019-May-12 13:30N 43°42' E 007°17'0 0.0
2019-May-12 13:00N 43°42' E 007°17'0 0.0
2019-May-12 12:30N 43°42' E 007°17'0 0.0
2019-May-12 12:00N 43°42' E 007°17'0 0.0
2019-May-12 11:30N 43°42' E 007°17'0 0.0
2019-May-12 11:00N 43°42' E 007°17'0 0.0
2019-May-12 10:30N 43°42' E 007°17'0 0.0
2019-May-12 10:00N 43°42' E 007°17'0 0.0
2019-May-12 09:30N 43°42' E 007°17'0 0.0
2019-May-12 09:00N 43°42' E 007°17'0 0.0
2019-May-12 08:30N 43°42' E 007°17'0 0.0
2019-May-12 08:00N 43°42' E 007°17'0 0.0
2019-May-12 07:30N 43°42' E 007°17'0 0.0
2019-May-12 07:00N 43°42' E 007°17'0 0.0
2019-May-12 06:30N 43°42' E 007°17'0 0.0
2019-May-12 06:00N 43°42' E 007°17'1 1.3
2019-May-12 05:30N 43°41' E 007°17'3 6.0
2019-May-12 05:00N 43°40' E 007°21'4 8.7
2019-May-12 04:30N 43°43' E 007°26'510.6
2019-May-12 04:00N 43°47' E 007°31'0 0.2
2019-May-12 03:29N 43°47' E 007°31'0 0.0
2019-May-12 02:56N 43°47' E 007°31'0 0.0
2019-May-12 02:20N 43°47' E 007°31'0 0.0
2019-May-12 01:59N 43°47' E 007°31'0 0.0
2019-May-12 01:29N 43°47' E 007°31'0 0.0
2019-May-12 00:56N 43°47' E 007°31'0 0.0
2019-May-12 00:29N 43°47' E 007°31'0 0.0
2019-May-11 23:56N 43°47' E 007°31'0 0.1
2019-May-11 23:29N 43°47' E 007°31'0 0.0
2019-May-11 22:59N 43°47' E 007°31'0 0.0
2019-May-11 22:29N 43°47' E 007°31'0 0.1
2019-May-11 21:59N 43°47' E 007°31'0 0.0
2019-May-11 21:26N 43°47' E 007°31'0 0.0
2019-May-11 20:59N 43°47' E 007°31'0 0.0
2019-May-11 20:26N 43°47' E 007°31'0 0.0
2019-May-11 19:56N 43°47' E 007°31'0 0.0
2019-May-11 19:29N 43°47' E 007°31'0 0.0
2019-May-11 18:56N 43°47' E 007°31'0 0.0
2019-May-11 18:29N 43°47' E 007°31'0 0.0
2019-May-11 17:59N 43°47' E 007°31'0 0.0
2019-May-11 17:26N 43°47' E 007°31'0 0.0
2019-May-11 16:56N 43°47' E 007°31'0 0.0
2019-May-11 16:23N 43°47' E 007°31'0 0.1
2019-May-11 15:59N 43°47' E 007°31'0 0.0
2019-May-11 15:29N 43°47' E 007°31'0 0.0
2019-May-11 13:41N 43°47' E 007°31'0 0.0
2019-May-11 13:17N 43°47' E 007°31'0 0.0
2019-May-11 12:56N 43°47' E 007°31'0 0.0
2019-May-11 12:29N 43°47' E 007°31'0 0.0
2019-May-11 11:59N 43°47' E 007°31'0 0.0
2019-May-11 11:29N 43°47' E 007°31'0 0.8
2019-May-11 11:00N 43°46' E 007°31'3 6.6
2019-May-11 10:30N 43°43' E 007°33'4 7.4
2019-May-11 10:00N 43°40' E 007°36'3 5.7
2019-May-11 09:30N 43°38' E 007°38'0 0.2
2019-May-11 09:00N 43°38' E 007°38'0 0.1
2019-May-11 08:30N 43°38' E 007°38'0 0.4
2019-May-11 08:00N 43°38' E 007°38'0 1.0
2019-May-11 07:30N 43°38' E 007°39'1 1.0
2019-May-11 07:00N 43°38' E 007°39'1 1.3
2019-May-11 06:30N 43°37' E 007°40'2 3.6
2019-May-11 06:00N 43°37' E 007°43'4 7.9
2019-May-11 05:30N 43°36' E 007°48'4 7.7
2019-May-11 05:00N 43°34' E 007°53'4 7.5
2019-May-11 04:30N 43°33' E 007°58'4 7.6
2019-May-11 04:00N 43°31' E 008°03'4 7.9
2019-May-11 03:30N 43°30' E 008°08'4 7.5
2019-May-11 03:00N 43°29' E 008°13'4 7.3
2019-May-11 02:30N 43°28' E 008°17'4 7.3
2019-May-11 01:59N 43°27' E 008°22'4 7.7
2019-May-11 01:24N 43°25' E 008°28'4 7.7
2019-May-11 00:52N 43°23' E 008°33'3 7.6
2019-May-11 00:29N 43°22' E 008°37'4 7.9
2019-May-11 00:00N 43°21' E 008°42'4 7.9
2019-May-10 23:30N 43°19' E 008°47'4 8.0
2019-May-10 23:00N 43°18' E 008°52'4 8.1
2019-May-10 22:30N 43°16' E 008°57'4 8.1
2019-May-10 22:00N 43°15' E 009°02'4 7.9
2019-May-10 21:29N 43°14' E 009°08'13 7.8
2019-May-10 19:50N 43°11' E 009°25'2 7.6
2019-May-10 19:30N 43°10' E 009°28'4 7.9
2019-May-10 19:00N 43°08' E 009°33'4 7.4
2019-May-10 18:29N 43°05' E 009°36'4 7.8
2019-May-10 17:58N 43°02' E 009°39'4 8.0
2019-May-10 17:29N 42°58' E 009°40'7 7.8
2019-May-10 16:33N 42°51' E 009°38'1 8.1
2019-May-10 16:27N 42°50' E 009°38'3 6.1
2019-May-10 16:00N 42°47' E 009°36'1 0.7
2019-May-10 15:10N 42°47' E 009°37'0 0.8
2019-May-10 15:00N 42°47' E 009°37'2 1.5
2019-May-10 13:45N 42°45' E 009°37'1 1.5
2019-May-10 13:14N 42°44' E 009°37'1 2.0
2019-May-10 12:47N 42°43' E 009°36'7 6.8
2019-May-10 11:50N 42°42' E 009°28'4 0.6
2019-May-10 04:50N 42°42' E 009°33'2 5.6
2019-May-10 04:25N 42°42' E 009°36'2 3.8
2019-May-10 04:00N 42°41' E 009°38'2 4.1
2019-May-10 03:30N 42°41' E 009°41'3 6.1
2019-May-10 03:00N 42°41' E 009°45'7 6.8
2019-May-10 01:54N 42°41' E 009°55'10 4.5
2019-May-09 23:45N 42°41' E 010°08'4 3.3
2019-May-09 22:41N 42°40' E 010°13'37 1.6
2019-May-08 23:14N 43°17' E 010°14'3 5.0
2019-May-08 22:38N 43°20' E 010°13'1 4.8
2019-May-08 22:24N 43°21' E 010°12'2 4.9
2019-May-08 22:00N 43°23' E 010°12'4 5.1
2019-May-08 21:08N 43°27' E 010°09'1 4.8
2019-May-08 21:01N 43°28' E 010°10'3 5.2
2019-May-08 20:31N 43°30' E 010°11'3 6.4
2019-May-08 20:01N 43°32' E 010°15'3 5.6
2019-May-08 19:30N 43°33' E 010°18'0 0.0
2019-May-08 18:58N 43°33' E 010°18'0 0.0
2019-May-08 18:28N 43°33' E 010°18'0 0.0
2019-May-08 17:58N 43°33' E 010°18'0 0.0
2019-May-08 17:25N 43°33' E 010°18'0 0.0
2019-May-08 16:49N 43°33' E 010°18'0 0.0
2019-May-08 16:28N 43°33' E 010°18'0 0.0
2019-May-08 15:55N 43°33' E 010°18'0 0.0
2019-May-08 15:25N 43°33' E 010°18'0 0.0
2019-May-08 14:46N 43°33' E 010°18'0 0.0
2019-May-08 14:22N 43°33' E 010°18'0 0.0
2019-May-08 13:58N 43°33' E 010°18'0 0.0
2019-May-08 13:25N 43°33' E 010°18'0 0.0
2019-May-08 12:55N 43°33' E 010°18'0 0.0
2019-May-08 12:28N 43°33' E 010°18'0 0.0
2019-May-08 11:58N 43°33' E 010°18'0 0.0
2019-May-08 11:28N 43°33' E 010°18'0 0.0
2019-May-08 10:58N 43°33' E 010°18'0 0.0
2019-May-08 10:25N 43°33' E 010°18'0 0.0
2019-May-08 09:55N 43°33' E 010°18'0 0.0
2019-May-08 09:19N 43°33' E 010°18'0 0.0
2019-May-08 08:55N 43°33' E 010°18'0 0.0
2019-May-08 08:19N 43°33' E 010°18'0 0.0
2019-May-08 07:55N 43°33' E 010°18'0 0.0
2019-May-08 07:19N 43°33' E 010°18'0 0.0
2019-May-08 06:52N 43°33' E 010°18'0 0.0
2019-May-08 06:28N 43°33' E 010°18'0 0.0
2019-May-08 05:58N 43°33' E 010°18'0 0.3
2019-May-08 05:30N 43°33' E 010°18'2 4.1
2019-May-08 05:00N 43°32' E 010°16'3 6.3
2019-May-08 04:30N 43°30' E 010°12'2 4.8
2019-May-08 04:00N 43°30' E 010°09'2 4.6
2019-May-08 03:30N 43°30' E 010°06'2 3.4
2019-May-08 03:00N 43°32' E 010°05'3 5.5
2019-May-08 02:30N 43°35' E 010°05'3 6.8
2019-May-08 02:00N 43°38' E 010°04'3 6.9
2019-May-08 01:30N 43°41' E 010°02'3 6.9
2019-May-08 01:00N 43°44' E 010°01'2 4.3
2019-May-08 00:30N 43°47' E 009°59'2 3.4
2019-May-08 00:00N 43°48' E 009°59'2 3.5
2019-May-07 23:30N 43°50' E 009°58'2 3.4
2019-May-07 23:00N 43°51' E 009°57'3 6.4
2019-May-07 22:30N 43°54' E 009°55'3 6.7
2019-May-07 22:00N 43°57' E 009°54'3 6.7
2019-May-07 21:30N 44°01' E 009°52'3 5.6
2019-May-07 21:00N 44°03' E 009°51'0 0.1
2019-May-07 20:30N 44°03' E 009°51'0 0.0
2019-May-07 20:00N 44°03' E 009°51'0 0.0
2019-May-07 19:30N 44°03' E 009°51'0 0.0
2019-May-07 19:00N 44°03' E 009°51'0 0.1
2019-May-07 18:30N 44°03' E 009°51'0 0.0
2019-May-07 18:00N 44°03' E 009°51'0 0.0
2019-May-07 17:30N 44°03' E 009°51'0 0.0
2019-May-07 17:00N 44°03' E 009°51'0 0.0
2019-May-07 16:30N 44°03' E 009°51'0 0.0
2019-May-07 16:00N 44°03' E 009°51'0 0.0
2019-May-07 15:30N 44°03' E 009°51'0 0.0
2019-May-07 15:00N 44°03' E 009°51'0 0.0
2019-May-07 14:30N 44°03' E 009°51'0 0.0
2019-May-07 14:00N 44°03' E 009°51'0 0.0
2019-May-07 13:30N 44°03' E 009°51'0 0.0
2019-May-07 13:00N 44°03' E 009°51'0 0.0
2019-May-07 12:30N 44°03' E 009°51'0 0.0
2019-May-07 12:00N 44°03' E 009°51'0 0.0
2019-May-07 11:30N 44°03' E 009°51'0 0.0
2019-May-07 11:00N 44°03' E 009°51'0 0.4
2019-May-07 10:31N 44°03' E 009°51'3 5.5
2019-May-07 10:01N 44°01' E 009°53'4 7.1
2019-May-07 09:30N 43°58' E 009°50'2 3.4
2019-May-07 09:01N 43°57' E 009°49'1 2.6
2019-May-07 08:31N 43°55' E 009°49'1 2.6
2019-May-07 08:01N 43°54' E 009°49'2 3.1
2019-May-07 07:30N 43°53' E 009°50'1 2.5
2019-May-07 07:01N 43°51' E 009°50'1 2.6
2019-May-07 06:30N 43°50' E 009°51'2 4.2
2019-May-07 06:01N 43°48' E 009°52'3 6.5
2019-May-07 05:31N 43°47' E 009°48'2 4.5
2019-May-07 05:00N 43°47' E 009°45'2 3.8
2019-May-07 04:30N 43°47' E 009°42'2 4.9
2019-May-07 04:00N 43°46' E 009°39'3 7.0
2019-May-07 03:31N 43°46' E 009°34'4 7.0
2019-May-07 03:00N 43°46' E 009°29'3 7.0
2019-May-07 02:31N 43°45' E 009°24'3 6.9
2019-May-07 02:01N 43°45' E 009°20'3 6.8
2019-May-07 01:31N 43°45' E 009°15'3 5.7
2019-May-07 01:01N 43°44' E 009°11'2 4.7
2019-May-07 00:31N 43°44' E 009°08'3 6.9
2019-May-07 00:01N 43°43' E 009°03'3 6.9
2019-May-06 23:30N 43°43' E 008°58'3 7.0
2019-May-06 23:01N 43°42' E 008°54'4 7.0
2019-May-06 22:30N 43°42' E 008°49'3 6.8
2019-May-06 22:00N 43°41' E 008°44'3 6.6
2019-May-06 21:30N 43°40' E 008°40'3 6.7
2019-May-06 21:01N 43°40' E 008°35'3 6.7
2019-May-06 20:30N 43°39' E 008°31'3 6.5
2019-May-06 19:59N 43°38' E 008°26'2510.5
2019-May-06 17:38N 43°36' E 007°52'210.6
2019-May-06 17:29N 43°36' E 007°50'4 8.1
2019-May-06 17:01N 43°36' E 007°45'2 3.5
2019-May-06 16:30N 43°36' E 007°42'2 4.1
2019-May-06 16:00N 43°36' E 007°39'2 4.6
2019-May-06 15:31N 43°36' E 007°36'2 4.9
2019-May-06 15:01N 43°35' E 007°33'3 5.6
2019-May-06 14:31N 43°35' E 007°29'3 6.1
2019-May-06 14:00N 43°34' E 007°25'3 6.3
2019-May-06 13:31N 43°34' E 007°20'3 6.4
2019-May-06 13:01N 43°34' E 007°16'3 5.5
2019-May-06 12:30N 43°34' E 007°12'3 6.4
2019-May-06 12:01N 43°35' E 007°08'  

Dump ship's entire track history